Time;durP1;ratioP1;P1;durP2;ratioP2;P2;SDS_P1;SDS_P2;PMS_P1;PMS_P2;Temp;Humidity;BMP_temperature;BMP_pressure;BME280_temperature;BME280_humidity;BME280_pressure;Samples;Min_cycle;Max_cycle;Signal;HPM_P1;HPM_P2
2022/06/20 00:01:05;;;;;;;7.47;2.00;;;;;;;;;;5012367;28;20030;-88
2022/06/20 00:03:41;;;;;;;6.60;1.67;;;;;;;;;;5012102;28;20026;-87
2022/06/20 00:06:11;;;;;;;12.68;2.10;;;;;;;;;;5012247;28;20032;-87
2022/06/20 00:08:36;;;;;;;8.13;1.85;;;;;;;;;;5011799;28;20057;-87
2022/06/20 00:11:01;;;;;;;9.63;2.17;;;;;;;;;;5010437;28;20049;-87
2022/06/20 00:13:28;;;;;;;8.60;2.30;;;;;;;;;;5011963;28;20328;-88
2022/06/20 00:15:57;;;;;;;8.10;2.10;;;;;;;;;;5012312;28;20263;-86
2022/06/20 00:18:23;;;;;;;7.57;2.03;;;;;;;;;;5012299;28;20076;-87
2022/06/20 00:20:48;;;;;;;8.52;2.15;;;;;;;;;;5012154;28;20480;-87
2022/06/20 00:23:14;;;;;;;11.30;2.03;;;;;;;;;;5011694;28;20041;-88
2022/06/20 00:25:39;;;;;;;9.02;1.80;;;;;;;;;;5012130;28;20018;-88
2022/06/20 00:28:05;;;;;;;7.45;2.03;;;;;;;;;;5011844;28;20026;-88
2022/06/20 00:30:30;;;;;;;10.07;2.10;;;;;;;;;;5012081;28;20022;-87
2022/06/20 00:32:55;;;;;;;7.72;1.95;;;;;;;;;;5011971;28;20029;-87
2022/06/20 00:35:21;;;;;;;8.38;1.90;;;;;;;;;;5010557;28;20026;-87
2022/06/20 00:37:46;;;;;;;8.60;2.15;;;;;;;;;;5011585;28;20033;-87
2022/06/20 00:40:32;;;;;;;10.00;1.80;;;;;;;;;;5011924;28;20025;-87
2022/06/20 00:42:58;;;;;;;7.88;2.15;;;;;;;;;;5010252;28;20403;-87
2022/06/20 00:45:24;;;;;;;7.30;2.00;;;;;;;;;;5010545;28;20127;-87
2022/06/20 00:47:50;;;;;;;6.13;1.60;;;;;;;;;;5011888;28;20018;-87
2022/06/20 00:50:18;;;;;;;6.70;1.63;;;;;;;;;;5011636;28;20025;-87
2022/06/20 00:52:45;;;;;;;4.57;2.00;;;;;;;;;;5011291;28;20475;-87
2022/06/20 00:55:13;;;;;;;5.88;1.40;;;;;;;;;;5011844;28;20395;-87
2022/06/20 00:57:42;;;;;;;8.68;1.80;;;;;;;;;;5011828;28;20018;-87
2022/06/20 01:00:08;;;;;;;10.25;2.92;;;;;;;;;;5011649;28;20479;-88
2022/06/20 01:02:35;;;;;;;9.05;2.05;;;;;;;;;;5011310;28;20041;-87
2022/06/20 01:05:02;;;;;;;6.25;1.55;;;;;;;;;;5011827;28;20075;-87
2022/06/20 01:07:40;;;;;;;9.65;2.10;;;;;;;;;;5010819;28;20576;-88
2022/06/20 01:10:06;;;;;;;9.43;1.58;;;;;;;;;;5011216;28;20022;-88
2022/06/20 01:12:37;;;;;;;9.13;1.60;;;;;;;;;;5011518;28;20028;-88
2022/06/20 01:15:14;;;;;;;10.95;2.25;;;;;;;;;;5010509;28;20113;-88
2022/06/20 01:17:39;;;;;;;3.55;1.20;;;;;;;;;;5011547;28;20460;-87
2022/06/20 01:20:07;;;;;;;5.70;1.37;;;;;;;;;;5010359;28;20033;-87
2022/06/20 01:22:36;;;;;;;7.72;1.90;;;;;;;;;;5013465;28;20630;-88
2022/06/20 01:25:08;;;;;;;6.32;1.27;;;;;;;;;;5013867;28;20101;-88
2022/06/20 01:27:36;;;;;;;15.02;2.15;;;;;;;;;;5013711;28;20026;-87
2022/06/20 01:30:01;;;;;;;5.40;1.75;;;;;;;;;;5015011;28;20018;-87
2022/06/20 01:32:27;;;;;;;10.60;1.63;;;;;;;;;;5014622;28;20052;-88
2022/06/20 01:34:52;;;;;;;7.80;2.00;;;;;;;;;;5014786;28;20034;-87
2022/06/20 01:37:29;;;;;;;8.93;1.75;;;;;;;;;;5014316;28;20014;-88
2022/06/20 01:40:11;;;;;;;9.57;1.75;;;;;;;;;;5014784;28;20022;-88
2022/06/20 01:42:37;;;;;;;7.65;1.67;;;;;;;;;;5014736;28;20030;-88
2022/06/20 01:45:05;;;;;;;5.43;1.52;;;;;;;;;;5014799;28;20113;-88
2022/06/20 01:47:31;;;;;;;8.40;1.35;;;;;;;;;;5014376;28;20014;-88
2022/06/20 01:49:59;;;;;;;7.68;1.98;;;;;;;;;;5014480;28;20068;-88
2022/06/20 01:52:28;;;;;;;7.85;1.83;;;;;;;;;;5006129;28;20030;-87
2022/06/20 01:54:55;;;;;;;5.72;1.50;;;;;;;;;;5014283;28;20534;-87
2022/06/20 01:57:21;;;;;;;14.90;2.15;;;;;;;;;;5014366;28;20380;-87
2022/06/20 01:59:57;;;;;;;5.97;1.70;;;;;;;;;;5014409;28;20017;-88
2022/06/20 02:02:22;;;;;;;4.53;1.60;;;;;;;;;;5014105;28;20037;-87
2022/06/20 02:04:47;;;;;;;9.88;2.10;;;;;;;;;;5014364;28;20041;-87
2022/06/20 02:07:13;;;;;;;5.72;1.55;;;;;;;;;;5013968;28;20022;-87
2022/06/20 02:09:39;;;;;;;13.40;1.58;;;;;;;;;;5014125;28;20025;-87
2022/06/20 02:12:05;;;;;;;6.22;1.65;;;;;;;;;;5014179;28;20025;-87
2022/06/20 02:14:33;;;;;;;13.13;2.45;;;;;;;;;;5014103;28;20072;-87
2022/06/20 02:17:00;;;;;;;6.35;1.35;;;;;;;;;;5013935;28;20026;-87
2022/06/20 02:19:28;;;;;;;4.45;1.60;;;;;;;;;;5014072;28;20220;-87
2022/06/20 02:21:57;;;;;;;7.90;2.00;;;;;;;;;;5012158;28;20029;-87
2022/06/20 02:24:23;;;;;;;8.45;2.10;;;;;;;;;;5013984;28;20480;-87
2022/06/20 02:26:50;;;;;;;7.10;1.60;;;;;;;;;;5013647;28;20018;-87
2022/06/20 02:29:23;;;;;;;7.88;1.58;;;;;;;;;;5014043;28;20466;-87
2022/06/20 02:31:53;;;;;;;7.72;1.77;;;;;;;;;;5013832;28;20014;-87
2022/06/20 02:34:18;;;;;;;10.13;1.45;;;;;;;;;;5013172;28;20029;-87
2022/06/20 02:36:44;;;;;;;9.77;2.85;;;;;;;;;;5011923;28;20018;-87
2022/06/20 02:39:09;;;;;;;4.75;1.42;;;;;;;;;;5013105;28;20169;-88
2022/06/20 02:41:36;;;;;;;7.80;1.50;;;;;;;;;;5012404;28;20468;-87
2022/06/20 02:44:06;;;;;;;10.38;2.03;;;;;;;;;;5011714;28;20442;-87
2022/06/20 02:46:32;;;;;;;6.50;1.65;;;;;;;;;;5013359;28;20028;-87
2022/06/20 02:48:58;;;;;;;13.00;2.83;;;;;;;;;;5013109;28;20037;-87
2022/06/20 02:51:26;;;;;;;8.50;2.00;;;;;;;;;;5013326;28;20017;-88
2022/06/20 02:53:53;;;;;;;11.23;2.70;;;;;;;;;;5013870;28;20104;-87
2022/06/20 02:56:20;;;;;;;12.82;2.40;;;;;;;;;;5013044;28;20064;-87
2022/06/20 02:58:50;;;;;;;9.60;2.58;;;;;;;;;;5013356;28;20030;-88
2022/06/20 03:01:21;;;;;;;7.88;2.25;;;;;;;;;;5013254;28;20032;-87
2022/06/20 03:03:48;;;;;;;7.93;2.10;;;;;;;;;;5013099;28;20044;-87
2022/06/20 03:06:32;;;;;;;9.50;2.50;;;;;;;;;;5013206;28;20022;-87
2022/06/20 03:08:57;;;;;;;8.48;1.90;;;;;;;;;;5013022;28;20106;-87
2022/06/20 03:11:23;;;;;;;10.57;1.80;;;;;;;;;;5013136;28;20065;-87
2022/06/20 03:13:49;;;;;;;10.18;2.08;;;;;;;;;;5013212;28;20026;-87
2022/06/20 03:16:14;;;;;;;7.45;2.05;;;;;;;;;;5011409;28;20026;-87
2022/06/20 03:18:41;;;;;;;5.47;1.67;;;;;;;;;;5012687;28;20419;-87
2022/06/20 03:21:07;;;;;;;8.10;2.15;;;;;;;;;;5011551;28;20112;-87
2022/06/20 03:23:33;;;;;;;9.90;1.75;;;;;;;;;;5012645;28;20444;-87
2022/06/20 03:25:59;;;;;;;10.95;2.28;;;;;;;;;;5012865;28;20022;-87
2022/06/20 03:28:25;;;;;;;9.73;1.80;;;;;;;;;;5013011;28;20029;-87
2022/06/20 03:30:51;;;;;;;10.43;2.05;;;;;;;;;;5012396;28;20030;-87
2022/06/20 03:33:17;;;;;;;10.65;2.15;;;;;;;;;;5012217;28;20022;-88
2022/06/20 03:36:02;;;;;;;12.85;2.25;;;;;;;;;;5012480;28;20148;-88
2022/06/20 03:38:27;;;;;;;7.78;2.10;;;;;;;;;;5012349;28;20087;-88
2022/06/20 03:40:53;;;;;;;5.88;1.70;;;;;;;;;;5011116;28;20025;-87
2022/06/20 03:43:20;;;;;;;5.82;1.90;;;;;;;;;;5012445;28;20377;-87
2022/06/20 03:45:48;;;;;;;10.40;2.55;;;;;;;;;;5011635;28;20084;-87
2022/06/20 03:48:14;;;;;;;8.88;2.63;;;;;;;;;;5012053;28;20021;-88
2022/06/20 03:50:44;;;;;;;6.22;1.73;;;;;;;;;;5012768;28;20108;-88
2022/06/20 03:53:09;;;;;;;9.05;1.77;;;;;;;;;;5012605;28;20026;-88
2022/06/20 03:55:40;;;;;;;8.50;2.17;;;;;;;;;;5012401;28;20022;-88
2022/06/20 03:58:06;;;;;;;7.75;2.00;;;;;;;;;;5011938;28;20054;-88
2022/06/20 04:00:54;;;;;;;4.20;1.53;;;;;;;;;;5012306;28;20060;-89
2022/06/20 04:03:19;;;;;;;7.68;1.90;;;;;;;;;;5012212;28;20076;-88
2022/06/20 04:05:49;;;;;;;9.40;1.90;;;;;;;;;;5012287;28;20026;-88
2022/06/20 04:08:19;;;;;;;10.20;1.50;;;;;;;;;;5012479;28;20036;-88
2022/06/20 04:11:00;;;;;;;6.30;1.48;;;;;;;;;;5012180;28;20021;-88
2022/06/20 04:13:41;;;;;;;9.43;2.03;;;;;;;;;;5011750;28;20032;-88
2022/06/20 04:16:09;;;;;;;4.10;1.33;;;;;;;;;;5011833;28;20034;-88
2022/06/20 04:18:46;;;;;;;7.18;1.42;;;;;;;;;;5010978;28;20025;-87
2022/06/20 04:21:20;;;;;;;12.38;1.90;;;;;;;;;;5011947;28;20428;-87
2022/06/20 04:23:54;;;;;;;9.38;2.30;;;;;;;;;;5011746;28;20503;-87
2022/06/20 04:26:19;;;;;;;13.52;2.25;;;;;;;;;;5011970;28;20018;-88
2022/06/20 04:28:57;;;;;;;7.83;1.47;;;;;;;;;;5011913;28;20033;-88
2022/06/20 04:31:22;;;;;;;9.07;2.45;;;;;;;;;;5011822;28;20256;-88
2022/06/20 04:33:47;;;;;;;8.00;1.92;;;;;;;;;;5011992;28;20101;-88
2022/06/20 04:36:28;;;;;;;6.43;2.03;;;;;;;;;;5011606;28;20026;-87
2022/06/20 04:38:58;;;;;;;7.53;2.00;;;;;;;;;;5011812;28;20029;-88
2022/06/20 04:41:39;;;;;;;8.48;2.33;;;;;;;;;;5011867;28;20113;-87
2022/06/20 04:44:10;;;;;;;6.93;1.65;;;;;;;;;;5012008;28;20068;-88
2022/06/20 04:46:39;;;;;;;6.68;2.38;;;;;;;;;;5011901;28;20014;-88
2022/06/20 04:49:07;;;;;;;7.70;1.67;;;;;;;;;;5011580;28;20044;-88
2022/06/20 04:51:34;;;;;;;7.32;1.88;;;;;;;;;;5011679;28;20014;-88
2022/06/20 04:54:01;;;;;;;5.80;1.70;;;;;;;;;;5011879;28;20057;-88
2022/06/20 04:56:29;;;;;;;7.28;2.63;;;;;;;;;;5012166;28;20014;-88
2022/06/20 04:58:57;;;;;;;8.23;1.60;;;;;;;;;;5015297;28;20468;-89
2022/06/20 05:01:22;;;;;;;9.88;1.67;;;;;;;;;;5015977;28;20024;-88
2022/06/20 05:03:55;;;;;;;13.65;1.80;;;;;;;;;;5015839;28;20026;-88
2022/06/20 05:06:23;;;;;;;4.00;1.42;;;;;;;;;;5015299;28;20436;-88
2022/06/20 05:08:50;;;;;;;6.32;1.48;;;;;;;;;;5015470;28;20105;-88
2022/06/20 05:11:15;;;;;;;8.48;1.73;;;;;;;;;;5014785;28;20069;-88
2022/06/20 05:13:50;;;;;;;8.17;1.73;;;;;;;;;;5015042;28;20026;-88
2022/06/20 05:16:17;;;;;;;5.82;1.42;;;;;;;;;;5015574;28;20026;-88
2022/06/20 05:18:44;;;;;;;11.07;2.00;;;;;;;;;;5015435;28;20358;-88
2022/06/20 05:21:15;;;;;;;8.50;1.50;;;;;;;;;;5015076;28;20040;-88
2022/06/20 05:23:42;;;;;;;6.68;1.60;;;;;;;;;;5015048;28;20037;-88
2022/06/20 05:26:10;;;;;;;4.22;1.33;;;;;;;;;;5013838;28;20022;-88
2022/06/20 05:28:37;;;;;;;8.60;1.60;;;;;;;;;;5014795;28;20495;-88
2022/06/20 05:31:03;;;;;;;5.05;1.20;;;;;;;;;;5014899;28;20025;-88
2022/06/20 05:33:39;;;;;;;9.25;1.50;;;;;;;;;;5014852;28;20479;-88
2022/06/20 05:36:04;;;;;;;7.75;1.83;;;;;;;;;;5013515;28;20111;-88
2022/06/20 05:38:36;;;;;;;8.60;1.90;;;;;;;;;;5014336;28;20068;-87
2022/06/20 05:41:01;;;;;;;;;;;;;;;;;;5014984;28;20036;-87
2022/06/20 05:43:28;;;;;;;7.95;1.83;;;;;;;;;;5014557;28;19913;-87
2022/06/20 05:45:55;;;;;;;7.63;1.88;;;;;;;;;;5014332;28;20464;-87
2022/06/20 05:48:24;;;;;;;5.50;1.67;;;;;;;;;;5014260;28;20022;-87
2022/06/20 05:50:56;;;;;;;4.18;1.20;;;;;;;;;;5007944;28;20133;-87
2022/06/20 05:53:24;;;;;;;4.85;1.45;;;;;;;;;;5014488;28;20096;-87
2022/06/20 05:55:49;;;;;;;5.40;2.15;;;;;;;;;;5014486;28;20026;-89
2022/06/20 05:58:18;;;;;;;3.08;1.10;;;;;;;;;;5013859;28;20387;-86
2022/06/20 06:00:44;;;;;;;8.43;1.65;;;;;;;;;;5013283;28;20013;-87
2022/06/20 06:03:15;;;;;;;6.68;1.33;;;;;;;;;;5014172;28;20379;-87
2022/06/20 06:05:41;;;;;;;5.63;1.75;;;;;;;;;;5014186;28;20025;-86
2022/06/20 06:08:11;;;;;;;10.50;1.70;;;;;;;;;;5013076;28;20028;-86
2022/06/20 06:10:40;;;;;;;5.57;1.60;;;;;;;;;;5014187;28;20537;-86
2022/06/20 06:13:05;;;;;;;6.03;1.17;;;;;;;;;;5012306;28;20034;-87
2022/06/20 06:15:33;;;;;;;7.77;1.30;;;;;;;;;;5014322;28;20523;-87
2022/06/20 06:18:01;;;;;;;8.77;1.48;;;;;;;;;;5014158;28;20021;-87
2022/06/20 06:20:29;;;;;;;5.25;1.33;;;;;;;;;;5013134;28;20030;-87
2022/06/20 06:22:59;;;;;;;9.27;1.77;;;;;;;;;;5012679;28;20120;-87
2022/06/20 06:25:31;;;;;;;6.00;1.38;;;;;;;;;;5013670;28;20045;-87
2022/06/20 06:28:02;;;;;;;6.65;2.22;;;;;;;;;;5013655;28;20014;-87
2022/06/20 06:30:42;;;;;;;9.40;1.30;;;;;;;;;;5013959;28;20018;-88
2022/06/20 06:33:20;;;;;;;7.38;1.42;;;;;;;;;;5013900;28;20380;-87
2022/06/20 06:35:48;;;;;;;3.08;1.50;;;;;;;;;;5013915;28;20427;-87
2022/06/20 06:38:32;;;;;;;5.32;1.50;;;;;;;;;;5013698;28;20076;-87
2022/06/20 06:40:58;;;;;;;6.20;1.50;;;;;;;;;;4992990;28;20435;-87
2022/06/20 06:43:28;;;;;;;6.60;1.48;;;;;;;;;;4994677;28;20093;-87
2022/06/20 06:45:56;;;;;;;4.00;1.35;;;;;;;;;;5002502;28;20029;-88
2022/06/20 06:48:33;;;;;;;5.53;1.35;;;;;;;;;;5013432;28;20029;-88
2022/06/20 06:50:58;;;;;;;4.63;0.85;;;;;;;;;;5008442;28;20030;-88
2022/06/20 06:53:24;;;;;;;7.00;1.47;;;;;;;;;;5013558;28;20018;-88
2022/06/20 06:55:51;;;;;;;8.33;1.63;;;;;;;;;;5013454;28;20057;-88
2022/06/20 06:58:19;;;;;;;2.60;0.95;;;;;;;;;;5012611;28;20037;-88
2022/06/20 07:00:48;;;;;;;3.42;1.23;;;;;;;;;;5012863;28;20029;-88
2022/06/20 07:03:18;;;;;;;2.85;0.90;;;;;;;;;;5013156;28;20396;-88
2022/06/20 07:05:49;;;;;;;4.80;1.02;;;;;;;;;;5013108;28;20476;-88
2022/06/20 07:08:15;;;;;;;;;;;;;;;;;;5011289;28;20368;-88
2022/06/20 07:10:47;;;;;;;5.72;0.90;;;;;;;;;;5013589;28;20355;-89
2022/06/20 07:13:31;;;;;;;4.60;1.25;;;;;;;;;;5011647;28;20018;-88
2022/06/20 07:15:58;;;;;;;2.80;0.70;;;;;;;;;;5011215;28;20030;-88
2022/06/20 07:18:42;;;;;;;2.40;0.80;;;;;;;;;;5011657;28;20018;-86
2022/06/20 07:21:10;;;;;;;9.80;1.15;;;;;;;;;;5011192;28;20375;-88
2022/06/20 07:23:35;;;;;;;4.57;0.90;;;;;;;;;;5011385;28;20083;-88
2022/06/20 07:26:00;;;;;;;4.93;1.30;;;;;;;;;;5011465;28;21077;-88
2022/06/20 07:28:25;;;;;;;2.50;0.82;;;;;;;;;;5011904;28;20021;-89
2022/06/20 07:30:56;;;;;;;3.03;0.90;;;;;;;;;;5011784;28;20472;-89
2022/06/20 07:33:24;;;;;;;3.65;0.90;;;;;;;;;;4991876;28;20081;-88
2022/06/20 07:35:51;;;;;;;3.85;0.90;;;;;;;;;;5012332;28;20026;-88
2022/06/20 07:38:28;;;;;;;1.92;1.00;;;;;;;;;;5012636;28;20105;-90
2022/06/20 07:41:02;;;;;;;5.53;1.10;;;;;;;;;;5008545;28;20457;-89
2022/06/20 07:43:27;;;;;;;6.85;0.90;;;;;;;;;;5024421;28;20036;-89
2022/06/20 07:45:53;;;;;;;4.80;1.10;;;;;;;;;;5012632;28;20018;-89
2022/06/20 07:48:39;;;;;;;3.60;0.73;;;;;;;;;;5012445;28;20096;-89
2022/06/20 07:51:15;;;;;;;2.45;0.68;;;;;;;;;;5011601;28;20129;-90
2022/06/20 07:53:43;;;;;;;3.17;0.98;;;;;;;;;;5031059;28;20027;-89
2022/06/20 07:56:40;;;;;;;2.22;0.60;;;;;;;;;;5026246;28;20029;-89
2022/06/20 07:59:11;;;;;;;3.58;0.80;;;;;;;;;;5008419;28;20026;-92
2022/06/20 08:01:48;;;;;;;1.55;0.43;;;;;;;;;;5010998;28;20025;-89
2022/06/20 08:04:15;;;;;;;2.10;0.73;;;;;;;;;;5000149;28;20041;-88
2022/06/20 08:06:46;;;;;;;5.53;1.27;;;;;;;;;;4993058;28;20029;-89
2022/06/20 08:09:21;;;;;;;2.63;0.82;;;;;;;;;;5009234;28;20021;-88
2022/06/20 08:11:53;;;;;;;2.78;0.88;;;;;;;;;;5011861;28;20034;-88
2022/06/20 08:14:21;;;;;;;1.98;0.65;;;;;;;;;;5011386;28;20559;-88
2022/06/20 08:16:47;;;;;;;3.28;0.70;;;;;;;;;;5007024;28;20112;-87
2022/06/20 08:19:13;;;;;;;2.65;0.60;;;;;;;;;;4992028;28;20019;-87
2022/06/20 08:21:41;;;;;;;2.92;0.60;;;;;;;;;;5006886;28;20056;-87
2022/06/20 08:24:15;;;;;;;2.05;0.82;;;;;;;;;;5011098;28;20486;-89
2022/06/20 08:26:43;;;;;;;7.30;0.65;;;;;;;;;;5007329;28;20030;-88
2022/06/20 08:29:15;;;;;;;2.22;0.73;;;;;;;;;;5007027;28;20037;-88
2022/06/20 08:31:44;;;;;;;2.97;0.80;;;;;;;;;;5007735;28;20018;-88
2022/06/20 08:34:09;;;;;;;1.75;0.70;;;;;;;;;;5016048;28;20022;-88
2022/06/20 08:36:55;;;;;;;2.10;0.70;;;;;;;;;;5016082;28;20024;-88
2022/06/20 08:39:20;;;;;;;3.88;0.65;;;;;;;;;;5015082;28;20287;-89
2022/06/20 08:41:48;;;;;;;2.83;0.70;;;;;;;;;;5026454;28;20104;-88
2022/06/20 08:44:19;;;;;;;2.67;0.85;;;;;;;;;;5014974;28;20046;-88
2022/06/20 08:46:57;;;;;;;2.85;0.90;;;;;;;;;;5014879;28;20017;-88
2022/06/20 08:49:40;;;;;;;2.67;0.70;;;;;;;;;;5016773;28;20124;-88
2022/06/20 08:52:09;;;;;;;5.68;0.85;;;;;;;;;;5019985;28;20030;-88
2022/06/20 08:54:47;;;;;;;3.63;1.20;;;;;;;;;;4996061;28;20076;-87
2022/06/20 08:57:15;;;;;;;4.38;1.83;;;;;;;;;;5025800;28;20026;-87
2022/06/20 08:59:59;;;;;;;2.58;0.90;;;;;;;;;;5034228;28;20486;-88
2022/06/20 09:02:25;;;;;;;6.22;1.25;;;;;;;;;;5012274;28;20057;-88
2022/06/20 09:05:09;;;;;;;5.10;1.23;;;;;;;;;;5014479;28;20096;-88
2022/06/20 09:07:52;;;;;;;2.97;1.05;;;;;;;;;;5013956;28;20022;-87
2022/06/20 09:10:17;;;;;;;7.45;1.55;;;;;;;;;;5007146;28;20034;-89
2022/06/20 09:12:58;;;;;;;3.60;1.10;;;;;;;;;;5012244;28;20021;-89
2022/06/20 09:15:29;;;;;;;5.07;0.80;;;;;;;;;;5010060;28;20415;-88
2022/06/20 09:17:57;;;;;;;4.35;0.93;;;;;;;;;;5009560;28;20105;-88
2022/06/20 09:20:40;;;;;;;3.53;1.00;;;;;;;;;;5011808;28;20796;-88
2022/06/20 09:23:12;;;;;;;4.35;0.52;;;;;;;;;;5014496;28;20036;-88
2022/06/20 09:25:38;;;;;;;4.18;0.98;;;;;;;;;;5013489;28;20554;-88
2022/06/20 09:28:09;;;;;;;2.07;0.67;;;;;;;;;;5014973;28;20117;-91
2022/06/20 09:30:34;;;;;;;11.18;1.13;;;;;;;;;;5014545;28;20022;-91
2022/06/20 09:33:26;;;;;;;3.70;0.80;;;;;;;;;;5014162;28;20018;-92
2022/06/20 09:36:26;;;;;;;2.38;0.77;;;;;;;;;;5012434;28;20060;-91
2022/06/20 09:38:51;;;;;;;3.28;0.80;;;;;;;;;;5015668;28;20456;-93
2022/06/20 09:41:23;;;;;;;1.73;0.63;;;;;;;;;;4995854;28;20113;-91
2022/06/20 09:44:11;;;;;;;2.03;0.63;;;;;;;;;;5001894;28;20030;-89
2022/06/20 09:46:36;;;;;;;4.53;0.98;;;;;;;;;;5009361;28;20084;-91
2022/06/20 09:49:14;;;;;;;5.73;0.80;;;;;;;;;;5014738;28;20026;-90
2022/06/20 09:51:47;;;;;;;4.75;0.50;;;;;;;;;;5013417;28;20018;-89
2022/06/20 09:54:12;;;;;;;1.67;0.75;;;;;;;;;;5007255;28;20105;-90
2022/06/20 09:56:51;;;;;;;1.57;0.60;;;;;;;;;;5012898;28;20165;-90
2022/06/20 09:59:28;;;;;;;3.05;1.00;;;;;;;;;;5014575;28;20022;-91
2022/06/20 10:01:59;;;;;;;2.20;0.80;;;;;;;;;;5013603;28;20022;-90
2022/06/20 10:04:30;;;;;;;8.93;0.80;;;;;;;;;;5012552;28;20017;-90
2022/06/20 10:06:59;;;;;;;3.50;0.80;;;;;;;;;;5014634;28;20076;-90
2022/06/20 10:09:30;;;;;;;3.20;0.80;;;;;;;;;;5013514;28;20148;-89
2022/06/20 10:11:55;;;;;;;;;;;;;;;;;;5013421;28;20025;-88
2022/06/20 10:14:27;;;;;;;2.13;0.60;;;;;;;;;;5013012;28;19905;-90
2022/06/20 10:16:57;;;;;;;2.90;0.73;;;;;;;;;;5014344;28;20018;-89
2022/06/20 10:19:28;;;;;;;1.40;0.60;;;;;;;;;;5012678;28;20021;-91
2022/06/20 10:22:29;;;;;;;2.92;0.73;;;;;;;;;;5013662;28;20025;-89
2022/06/20 10:25:13;;;;;;;2.60;0.80;;;;;;;;;;5003571;28;20038;-89
2022/06/20 10:27:51;;;;;;;1.63;0.50;;;;;;;;;;5006519;28;20044;-89
2022/06/20 10:30:16;;;;;;;2.88;0.60;;;;;;;;;;5000019;28;20093;-90
2022/06/20 10:33:00;;;;;;;3.03;0.70;;;;;;;;;;5013867;28;20113;-89
2022/06/20 10:35:32;;;;;;;2.38;0.70;;;;;;;;;;5013737;28;20014;-88
2022/06/20 10:38:00;;;;;;;3.78;0.85;;;;;;;;;;5013936;28;20037;-89
2022/06/20 10:40:44;;;;;;;3.03;0.70;;;;;;;;;;5013374;28;20380;-89
2022/06/20 10:43:18;;;;;;;2.72;0.70;;;;;;;;;;5013255;28;20495;-89
2022/06/20 10:45:45;;;;;;;8.18;1.00;;;;;;;;;;5013574;28;20463;-88
2022/06/20 10:48:13;;;;;;;3.80;0.80;;;;;;;;;;5011604;28;20021;-89
2022/06/20 10:50:43;;;;;;;2.35;0.70;;;;;;;;;;5013238;28;20396;-91
2022/06/20 10:53:12;;;;;;;2.55;0.75;;;;;;;;;;5013566;28;20100;-91
2022/06/20 10:55:43;;;;;;;3.33;0.80;;;;;;;;;;5011600;28;20030;-90
2022/06/20 10:58:23;;;;;;;3.40;0.95;;;;;;;;;;5013584;28;20125;-90
2022/06/20 11:00:51;;;;;;;4.68;0.82;;;;;;;;;;5012620;28;20022;-90
2022/06/20 11:03:20;;;;;;;3.40;0.88;;;;;;;;;;5012704;28;20344;-90
2022/06/20 11:05:51;;;;;;;5.30;1.00;;;;;;;;;;5012765;28;20062;-90
2022/06/20 11:08:16;;;;;;;;;;;;;;;;;;5013845;28;20022;-90
2022/06/20 11:10:47;;;;;;;3.60;0.80;;;;;;;;;;5013212;28;20000;-90
2022/06/20 11:13:21;;;;;;;10.20;0.77;;;;;;;;;;5012735;28;20022;-90
2022/06/20 11:15:50;;;;;;;4.88;1.30;;;;;;;;;;5013100;28;20487;-89
2022/06/20 11:18:15;;;;;;;6.35;1.08;;;;;;;;;;5012698;28;20029;-90
2022/06/20 11:21:03;;;;;;;2.33;0.63;;;;;;;;;;5013074;28;20010;-90
2022/06/20 11:23:31;;;;;;;3.17;0.60;;;;;;;;;;5002655;28;20108;-90
2022/06/20 11:25:56;;;;;;;1.25;0.60;;;;;;;;;;5012809;28;20018;-91
2022/06/20 11:28:41;;;;;;;3.57;0.80;;;;;;;;;;5025597;28;20082;-90
2022/06/20 11:31:10;;;;;;;2.90;1.23;;;;;;;;;;5011532;28;20022;-91
2022/06/20 11:36:20;;;;;;;3.10;0.82;;;;;;;;;;5008272;28;20125;-91
2022/06/20 11:38:51;;;;;;;2.65;1.00;;;;;;;;;;5011158;28;20026;-90
2022/06/20 11:41:24;;;;;;;3.20;1.23;;;;;;;;;;5010471;28;20021;-91
2022/06/20 11:44:06;;;;;;;2.67;0.77;;;;;;;;;;5011694;28;20034;-92
2022/06/20 11:46:41;;;;;;;9.68;1.00;;;;;;;;;;5003183;28;20037;-92
2022/06/20 11:49:06;;;;;;;7.00;1.00;;;;;;;;;;5011886;28;20448;-92
2022/06/20 11:51:53;;;;;;;2.87;1.13;;;;;;;;;;5011536;28;20399;-93
2022/06/20 11:54:41;;;;;;;4.20;1.20;;;;;;;;;;5011129;28;20026;-92
2022/06/20 11:57:14;;;;;;;6.57;0.63;;;;;;;;;;5011701;28;20149;-91
2022/06/20 11:59:44;;;;;;;4.18;0.95;;;;;;;;;;5004697;28;20050;-92
2022/06/20 12:02:29;;;;;;;3.95;1.38;;;;;;;;;;5013252;28;20030;-93
2022/06/20 12:04:58;;;;;;;3.42;0.70;;;;;;;;;;5011904;28;20025;-92
2022/06/20 12:07:36;;;;;;;3.25;0.75;;;;;;;;;;5011171;28;20072;-91
2022/06/20 12:10:14;;;;;;;3.17;1.10;;;;;;;;;;5010242;28;20026;-91
2022/06/20 12:12:45;;;;;;;3.78;1.10;;;;;;;;;;5006922;28;20409;-92
2022/06/20 12:15:11;;;;;;;;;;;;;;;;;;5011252;28;20014;-92
2022/06/20 12:17:39;;;;;;;3.50;1.10;;;;;;;;;;5009199;28;19905;-91
2022/06/20 12:23:18;;;;;;;4.60;1.10;;;;;;;;;;5012322;28;20037;-93
2022/06/20 12:25:44;;;;;;;3.38;0.77;;;;;;;;;;5011228;28;20022;-91
2022/06/20 12:28:20;;;;;;;2.92;1.00;;;;;;;;;;5012034;28;20467;-93
2022/06/20 12:30:47;;;;;;;3.97;0.80;;;;;;;;;;5011227;28;20044;-91
2022/06/20 12:33:13;;;;;;;1.58;0.60;;;;;;;;;;5010589;28;20050;-93
2022/06/20 12:35:42;;;;;;;2.03;0.77;;;;;;;;;;5012059;28;20456;-91
2022/06/20 12:38:11;;;;;;;2.45;0.85;;;;;;;;;;5012140;28;20040;-92
2022/06/20 12:40:43;;;;;;;4.35;1.08;;;;;;;;;;5012255;28;20022;-89
2022/06/20 12:43:27;;;;;;;4.00;0.90;;;;;;;;;;5011969;28;20034;-91
2022/06/20 12:45:59;;;;;;;2.95;1.20;;;;;;;;;;5010551;28;20431;-91
2022/06/20 12:48:47;;;;;;;2.15;0.60;;;;;;;;;;5011965;28;20025;-92
2022/06/20 12:51:24;;;;;;;4.32;0.93;;;;;;;;;;5008842;28;20034;-91
2022/06/20 12:54:04;;;;;;;2.60;0.80;;;;;;;;;;5011230;28;20018;-91
2022/06/20 12:56:29;;;;;;;5.18;0.98;;;;;;;;;;5011563;28;20424;-89
2022/06/20 12:59:05;;;;;;;7.03;1.30;;;;;;;;;;5011698;28;20025;-90
2022/06/20 13:01:40;;;;;;;3.83;0.95;;;;;;;;;;5011371;28;20032;-91
2022/06/20 13:04:14;;;;;;;4.00;0.60;;;;;;;;;;5011517;28;20103;-91
2022/06/20 13:06:42;;;;;;;2.97;0.82;;;;;;;;;;5012028;28;20468;-91
2022/06/20 13:09:19;;;;;;;2.33;1.20;;;;;;;;;;5010944;28;20458;-92
2022/06/20 13:12:02;;;;;;;3.60;1.00;;;;;;;;;;5011697;28;20014;-91
2022/06/20 13:14:30;;;;;;;3.17;1.00;;;;;;;;;;5011753;28;20022;-91
2022/06/20 13:16:55;;;;;;;2.75;1.00;;;;;;;;;;5011610;28;20014;-91
2022/06/20 13:19:33;;;;;;;4.70;1.10;;;;;;;;;;5014066;28;20084;-91
2022/06/20 13:22:17;;;;;;;7.22;1.42;;;;;;;;;;5014655;28;20026;-91
2022/06/20 13:25:01;;;;;;;3.15;1.10;;;;;;;;;;5014735;28;20018;-93
2022/06/20 13:27:35;;;;;;;5.45;0.98;;;;;;;;;;5011880;28;20029;-92
2022/06/20 13:30:27;;;;;;;5.30;1.40;;;;;;;;;;5035681;28;20078;-91
2022/06/20 13:32:57;;;;;;;3.28;0.93;;;;;;;;;;5026378;28;20112;-91
2022/06/20 13:35:41;;;;;;;6.55;1.40;;;;;;;;;;5013870;28;20014;-92
2022/06/20 13:38:06;;;;;;;3.17;0.85;;;;;;;;;;5015583;28;20026;-95
2022/06/20 13:40:34;;;;;;;2.93;0.87;;;;;;;;;;5013919;28;20527;-92
2022/06/20 13:43:18;;;;;;;2.40;0.90;;;;;;;;;;5013215;28;20029;-93
2022/06/20 13:45:43;;;;;;;4.30;1.05;;;;;;;;;;5014017;28;20076;-92
2022/06/20 13:48:27;;;;;;;3.37;1.10;;;;;;;;;;5014643;28;20026;-92
2022/06/20 13:50:57;;;;;;;3.15;1.23;;;;;;;;;;5014384;28;20279;-92
2022/06/20 13:53:28;;;;;;;3.72;0.95;;;;;;;;;;5015677;28;20030;-94
2022/06/20 13:55:59;;;;;;;3.80;1.20;;;;;;;;;;5013666;28;20026;-94
2022/06/20 13:58:30;;;;;;;3.47;0.90;;;;;;;;;;5013648;28;20392;-93
2022/06/20 14:00:56;;;;;;;;;;;;;;;;;;5011848;28;20022;-96
2022/06/20 14:03:23;;;;;;;2.92;1.08;;;;;;;;;;5013373;28;19909;-92
2022/06/20 14:05:48;;;;;;;6.10;1.15;;;;;;;;;;5014468;28;20300;-91
2022/06/20 14:08:20;;;;;;;3.03;0.93;;;;;;;;;;5013909;28;20353;-90
2022/06/20 14:10:59;;;;;;;2.10;0.82;;;;;;;;;;5013842;28;20018;-90
2022/06/20 14:13:45;;;;;;;3.78;0.90;;;;;;;;;;4994424;28;20042;-89
2022/06/20 14:16:22;;;;;;;4.18;1.40;;;;;;;;;;4994788;28;20031;-92
2022/06/20 14:19:00;;;;;;;2.72;1.20;;;;;;;;;;4993760;28;20018;-91
2022/06/20 14:21:39;;;;;;;4.15;0.90;;;;;;;;;;4994794;28;20049;-90
2022/06/20 14:24:05;;;;;;;2.90;1.15;;;;;;;;;;5011123;28;20076;-89
2022/06/20 14:26:34;;;;;;;5.70;1.35;;;;;;;;;;5012877;28;20041;-90
2022/06/20 14:29:19;;;;;;;2.58;1.08;;;;;;;;;;5013497;28;20068;-89
2022/06/20 14:31:50;;;;;;;3.65;1.00;;;;;;;;;;5013758;28;20037;-89
2022/06/20 14:34:20;;;;;;;3.10;1.27;;;;;;;;;;5012627;28;20041;-88
2022/06/20 14:36:49;;;;;;;4.43;1.42;;;;;;;;;;5013577;28;20068;-88
2022/06/20 14:39:28;;;;;;;3.28;0.93;;;;;;;;;;5013185;28;20022;-88
2022/06/20 14:41:58;;;;;;;5.10;1.20;;;;;;;;;;4994223;28;20014;-88
2022/06/20 14:44:26;;;;;;;3.75;1.73;;;;;;;;;;4994071;28;20023;-88
2022/06/20 14:47:00;;;;;;;2.55;0.90;;;;;;;;;;4996087;28;20022;-89
2022/06/20 14:49:29;;;;;;;5.60;1.73;;;;;;;;;;5012507;28;20071;-89
2022/06/20 14:51:59;;;;;;;3.63;1.30;;;;;;;;;;5012802;28;20018;-89
2022/06/20 14:54:33;;;;;;;3.45;1.02;;;;;;;;;;5013180;28;20112;-88
2022/06/20 14:57:08;;;;;;;5.15;2.65;;;;;;;;;;5012657;28;20539;-88
2022/06/20 14:59:48;;;;;;;2.28;0.80;;;;;;;;;;5004156;28;20026;-88
2022/06/20 15:02:23;;;;;;;4.10;0.88;;;;;;;;;;5010229;28;20392;-88
2022/06/20 15:04:52;;;;;;;2.33;1.02;;;;;;;;;;5011951;28;20025;-88
2022/06/20 15:07:20;;;;;;;5.15;1.48;;;;;;;;;;5011454;28;20038;-88
2022/06/20 15:09:52;;;;;;;3.53;1.05;;;;;;;;;;5011912;28;20087;-88
2022/06/20 15:12:37;;;;;;;4.13;1.20;;;;;;;;;;5011701;28;20083;-88